Time;durP1;ratioP1;P1;durP2;ratioP2;P2;SDS_P1;SDS_P2;PMS_P1;PMS_P2;Temp;Humidity;BMP_temperature;BMP_pressure;BME280_temperature;BME280_humidity;BME280_pressure;Samples;Min_cycle;Max_cycle;Signal;HPM_P1;HPM_P2
2022/09/14 00:00:26;;;;;;;19.30;17.30;;;22.20;99.90;;;;;;10353315;28;20199;-90
2022/09/14 00:05:28;;;;;;;21.85;18.25;;;22.20;99.90;;;;;;10350786;28;20262;-90
2022/09/14 00:10:31;;;;;;;18.55;16.75;;;22.20;99.90;;;;;;10350724;28;20227;-91
2022/09/14 00:15:37;;;;;;;19.02;17.02;;;22.20;99.90;;;;;;10368016;28;20248;-90
2022/09/14 00:20:40;;;;;;;20.02;17.55;;;22.20;99.90;;;;;;10370861;28;20699;-90
2022/09/14 00:25:42;;;;;;;19.35;17.27;;;22.20;99.90;;;;;;10350238;28;20262;-91
2022/09/14 00:30:45;;;;;;;19.95;16.75;;;22.20;99.90;;;;;;10382533;28;20235;-90
2022/09/14 00:35:48;;;;;;;20.17;17.27;;;22.20;99.90;;;;;;10367741;28;20274;-90
2022/09/14 00:40:58;;;;;;;19.02;17.02;;;22.20;99.90;;;;;;10350170;28;20232;-90
2022/09/14 00:46:01;;;;;;;20.02;17.88;;;22.10;99.90;;;;;;10402026;28;20242;-90
2022/09/14 00:51:04;;;;;;;17.35;15.57;;;22.10;99.90;;;;;;10408500;28;20196;-90
2022/09/14 00:56:06;;;;;;;18.30;16.13;;;22.10;99.90;;;;;;10399606;28;20305;-90
2022/09/14 01:01:09;;;;;;;18.42;16.45;;;22.10;99.90;;;;;;10381348;28;20394;-91
2022/09/14 01:06:36;;;;;;;19.10;17.20;;;22.10;99.90;;;;;;10336752;28;20269;-90
2022/09/14 01:12:07;;;;;;;18.77;16.85;;;22.10;99.90;;;;;;10349859;28;20242;-90
2022/09/14 01:17:20;;;;;;;18.40;16.45;;;22.10;99.90;;;;;;10379274;28;20730;-90
2022/09/14 01:22:32;;;;;;;19.73;16.95;;;22.10;99.90;;;;;;10382163;28;20683;-90
2022/09/14 01:27:40;;;;;;;19.00;17.05;;;22.10;99.90;;;;;;10380654;28;20268;-91
2022/09/14 01:32:49;;;;;;;19.02;16.90;;;22.10;99.90;;;;;;10372344;28;20239;-90
2022/09/14 01:38:08;;;;;;;18.65;16.70;;;22.10;99.90;;;;;;10412635;28;20662;-90
2022/09/14 01:43:23;;;;;;;17.92;16.08;;;22.00;99.90;;;;;;10397223;28;20258;-90
2022/09/14 01:48:36;;;;;;;18.27;16.48;;;21.90;99.90;;;;;;10406079;28;20224;-90
2022/09/14 01:53:54;;;;;;;19.80;17.73;;;21.90;99.90;;;;;;10373014;28;20240;-91
2022/09/14 01:59:10;;;;;;;18.90;16.60;;;21.90;99.90;;;;;;10372726;28;20651;-90
2022/09/14 02:04:16;;;;;;;18.30;16.42;;;21.80;99.90;;;;;;10357829;28;20263;-90
2022/09/14 02:09:21;;;;;;;18.27;16.40;;;21.70;99.90;;;;;;10384229;28;20196;-90
2022/09/14 02:14:23;;;;;;;16.80;15.05;;;21.80;99.90;;;;;;10413387;28;20297;-90
2022/09/14 02:19:32;;;;;;;20.63;17.30;;;21.80;99.90;;;;;;10357875;28;20231;-89
2022/09/14 02:24:35;;;;;;;17.10;15.40;;;21.80;99.90;;;;;;10386613;28;20296;-89
2022/09/14 02:29:38;;;;;;;17.85;16.10;;;21.70;99.90;;;;;;10354136;28;20651;-90
2022/09/14 02:34:43;;;;;;;21.27;16.27;;;21.80;99.90;;;;;;10371439;28;20232;-89
2022/09/14 02:40:12;;;;;;;17.95;16.05;;;21.60;99.90;;;;;;10354309;28;20232;-89
2022/09/14 02:45:30;;;;;;;18.13;16.23;;;21.80;99.90;;;;;;10352347;28;20248;-89
2022/09/14 02:50:51;;;;;;;17.75;15.93;;;21.80;99.90;;;;;;10371172;28;20282;-89
2022/09/14 02:55:58;;;;;;;18.85;16.67;;;21.80;99.90;;;;;;10370804;28;20259;-90
2022/09/14 03:01:02;;;;;;;16.20;14.60;;;21.70;99.90;;;;;;10342263;28;20229;-89
2022/09/14 03:06:05;;;;;;;20.75;16.42;;;21.70;99.90;;;;;;10341738;28;20312;-89
2022/09/14 03:11:08;;;;;;;17.58;15.88;;;21.70;99.90;;;;;;10368842;28;20649;-89
2022/09/14 03:16:13;;;;;;;17.83;16.02;;;21.70;99.90;;;;;;10385265;28;20244;-89
2022/09/14 03:21:16;;;;;;;17.33;15.63;;;21.70;99.90;;;;;;10369529;28;20259;-89
2022/09/14 03:26:21;;;;;;;18.02;16.17;;;21.70;99.90;;;;;;10351824;28;20288;-90
2022/09/14 03:31:24;;;;;;;17.35;15.60;;;21.70;99.90;;;;;;10351559;28;20259;-89
2022/09/14 03:36:29;;;;;;;17.30;15.50;;;21.70;99.90;;;;;;10369885;28;20255;-89
2022/09/14 03:41:31;;;;;;;16.38;14.77;;;21.70;99.90;;;;;;10350846;28;20240;-89
2022/09/14 03:46:34;;;;;;;17.40;15.50;;;21.60;99.90;;;;;;10368884;28;20232;-89
2022/09/14 03:51:36;;;;;;;17.05;15.35;;;21.60;99.90;;;;;;10351803;28;20810;-89
2022/09/14 03:56:39;;;;;;;17.75;15.98;;;21.60;99.90;;;;;;10383247;28;20324;-89
2022/09/14 04:01:42;;;;;;;17.27;15.48;;;21.60;99.90;;;;;;10366193;28;20741;-89
2022/09/14 04:06:44;;;;;;;17.05;15.45;;;21.50;99.90;;;;;;10368880;28;20239;-89
2022/09/14 04:11:47;;;;;;;16.27;14.57;;;21.60;99.90;;;;;;10401339;28;20247;-89
2022/09/14 04:16:49;;;;;;;16.45;14.70;;;21.60;99.90;;;;;;10391097;28;20301;-89
2022/09/14 04:21:52;;;;;;;16.63;14.93;;;21.50;99.90;;;;;;10337141;28;20209;-89
2022/09/14 04:26:54;;;;;;;16.23;14.63;;;21.50;99.90;;;;;;10333797;28;20235;-90
2022/09/14 04:31:57;;;;;;;15.90;14.30;;;21.50;99.90;;;;;;10386195;28;20247;-90
2022/09/14 04:37:00;;;;;;;16.35;14.65;;;21.40;99.90;;;;;;10349721;28;20654;-90
2022/09/14 04:42:03;;;;;;;15.43;13.95;;;21.50;99.90;;;;;;10343308;28;20419;-91
2022/09/14 04:47:05;;;;;;;15.52;14.07;;;21.50;99.90;;;;;;10358960;28;20242;-90
2022/09/14 04:52:08;;;;;;;15.77;14.25;;;21.50;99.90;;;;;;10364437;28;20243;-90
2022/09/14 04:57:10;;;;;;;15.60;14.05;;;21.50;99.90;;;;;;10361513;28;20305;-91
2022/09/14 05:02:13;;;;;;;15.93;13.57;;;21.50;99.90;;;;;;10382258;28;20708;-91
2022/09/14 05:07:16;;;;;;;15.50;14.00;;;21.40;99.90;;;;;;10387564;28;20263;-91
2022/09/14 05:12:19;;;;;;;15.75;14.15;;;21.50;99.90;;;;;;10355967;28;20263;-89
2022/09/14 05:17:21;;;;;;;6.10;5.30;;;21.50;99.90;;;;;;10372053;28;20313;-92
2022/09/14 05:22:24;;;;;;;9.98;4.03;;;20.70;99.90;;;;;;10374528;28;20204;-89
2022/09/14 05:27:26;;;;;;;6.00;3.17;;;18.80;99.90;;;;;;10386276;28;20236;-88
2022/09/14 05:32:29;;;;;;;6.33;2.73;;;19.10;99.90;;;;;;10373352;28;20236;-88
2022/09/14 05:37:31;;;;;;;3.63;2.60;;;19.30;99.90;;;;;;10388199;28;20268;-91
2022/09/14 05:42:34;;;;;;;5.45;2.97;;;19.80;99.90;;;;;;10341691;28;20514;-94
2022/09/14 05:47:36;;;;;;;7.20;2.83;;;18.90;99.90;;;;;;10318155;28;20209;-94
2022/09/14 05:52:40;;;;;;;4.22;2.40;;;18.50;99.90;;;;;;10317902;28;20208;-93
2022/09/14 05:57:48;;;;;;;5.70;2.50;;;19.10;99.90;;;;;;10317551;28;20225;-93
2022/09/14 06:02:53;;;;;;;3.70;2.17;;;19.20;99.90;;;;;;10316929;28;20205;-93
2022/09/14 06:07:55;;;;;;;5.18;2.80;;;19.40;99.90;;;;;;10300865;28;20567;-93
2022/09/14 06:12:58;;;;;;;4.30;2.67;;;19.20;99.90;;;;;;10316804;28;20209;-92
2022/09/14 06:18:01;;;;;;;4.30;2.25;;;19.70;99.90;;;;;;10317374;28;20233;-94
2022/09/14 06:23:03;;;;;;;3.75;2.58;;;18.70;99.90;;;;;;10317582;28;20201;-92
2022/09/14 06:28:06;;;;;;;3.55;2.40;;;19.40;99.90;;;;;;10331870;28;20709;-95
2022/09/14 06:33:09;;;;;;;2.90;2.20;;;19.80;99.90;;;;;;10315747;28;20213;-93
2022/09/14 06:38:13;;;;;;;5.40;2.30;;;20.00;99.90;;;;;;10316062;28;20248;-93
2022/09/14 06:43:16;;;;;;;3.78;2.67;;;19.40;99.90;;;;;;10299784;28;20276;-94
2022/09/14 06:48:18;;;;;;;5.60;1.95;;;19.50;99.90;;;;;;10315193;28;20687;-94
2022/09/14 06:53:21;;;;;;;2.83;1.98;;;20.10;99.90;;;;;;10316714;28;20255;-92
2022/09/14 06:58:24;;;;;;;4.78;3.08;;;20.00;99.90;;;;;;10359570;28;20306;-88
2022/09/14 07:03:27;;;;;;;10.93;3.70;;;16.70;99.90;;;;;;10353537;28;20231;-88
2022/09/14 07:08:29;;;;;;;6.10;3.77;;;14.60;99.90;;;;;;10370718;28;20311;-89
2022/09/14 07:13:32;;;;;;;49.00;10.97;;;15.20;99.90;;;;;;10350981;28;20625;-89
2022/09/14 07:18:35;;;;;;;16.30;6.70;;;18.80;99.90;;;;;;10361722;28;20314;-89
2022/09/14 07:23:40;;;;;;;32.10;9.63;;;20.60;99.90;;;;;;10367208;28;20636;-89
2022/09/14 07:28:45;;;;;;;26.23;8.88;;;20.80;99.90;;;;;;10332322;28;20260;-91
2022/09/14 07:33:54;;;;;;;35.88;11.90;;;20.70;99.90;;;;;;10312079;28;20748;-89
2022/09/14 07:38:56;;;;;;;41.53;10.60;;;20.90;99.90;;;;;;10319437;28;20244;-90
2022/09/14 07:44:01;;;;;;;31.17;11.55;;;22.00;99.90;;;;;;10295837;28;20233;-90
2022/09/14 07:49:04;;;;;;;19.25;5.65;;;22.60;99.90;;;;;;10310089;28;20244;-90
2022/09/14 07:54:10;;;;;;;24.88;10.68;;;22.20;99.90;;;;;;10334935;28;20310;-89
2022/09/14 07:59:13;;;;;;;30.02;10.55;;;22.70;99.90;;;;;;10340772;28;20314;-91
2022/09/14 08:04:38;;;;;;;14.15;5.18;;;23.10;99.90;;;;;;10326470;28;20232;-91
2022/09/14 08:09:40;;;;;;;12.98;7.35;;;22.80;99.90;;;;;;10317315;28;20221;-91
2022/09/14 08:14:43;;;;;;;27.50;10.57;;;22.90;99.90;;;;;;10335987;28;20749;-92
2022/09/14 08:19:45;;;;;;;18.23;9.75;;;22.90;99.90;;;;;;10329590;28;20247;-91
2022/09/14 08:24:47;;;;;;;16.00;7.53;;;23.00;99.90;;;;;;10340225;28;20232;-90
2022/09/14 08:29:50;;;;;;;19.15;9.48;;;22.20;99.90;;;;;;10314421;28;20260;-90
2022/09/14 08:34:52;;;;;;;17.38;7.20;;;22.90;99.90;;;;;;10342375;28;20276;-91
2022/09/14 08:39:57;;;;;;;24.52;9.05;;;22.90;99.90;;;;;;10338325;28;20713;-91
2022/09/14 08:45:04;;;;;;;16.67;5.25;;;22.80;99.90;;;;;;10347042;28;20321;-91
2022/09/14 08:50:17;;;;;;;15.07;7.13;;;22.40;99.90;;;;;;10356090;28;20291;-91
2022/09/14 08:55:40;;;;;;;12.98;7.18;;;23.00;99.90;;;;;;10337554;28;20749;-91
2022/09/14 09:00:56;;;;;;;11.18;6.20;;;22.60;99.90;;;;;;10333565;28;20256;-92
2022/09/14 09:06:16;;;;;;;6.20;4.57;;;22.10;99.90;;;;;;10374752;28;20298;-91
2022/09/14 09:11:21;;;;;;;12.55;8.32;;;22.30;99.90;;;;;;10343003;28;20232;-91
2022/09/14 09:16:27;;;;;;;9.27;5.35;;;22.20;99.90;;;;;;10321830;28;20314;-92
2022/09/14 09:21:42;;;;;;;10.27;7.70;;;21.70;99.90;;;;;;10346532;28;20231;-90
2022/09/14 09:26:45;;;;;;;8.57;5.88;;;21.90;99.90;;;;;;10323915;28;20244;-91
2022/09/14 09:31:57;;;;;;;15.38;8.00;;;22.30;99.90;;;;;;10342710;28;20241;-92
2022/09/14 09:37:22;;;;;;;8.05;4.35;;;22.30;99.90;;;;;;10313013;28;20313;-90
2022/09/14 09:42:27;;;;;;;6.97;4.38;;;21.90;99.90;;;;;;10316310;28;20213;-91
2022/09/14 09:47:36;;;;;;;9.80;4.95;;;21.70;99.90;;;;;;10332350;28;20679;-90
2022/09/14 09:52:58;;;;;;;13.65;8.98;;;22.20;99.90;;;;;;10296855;28;20307;-91
2022/09/14 09:58:24;;;;;;;9.88;7.03;;;23.20;99.90;;;;;;10307326;28;20283;-91
2022/09/14 10:03:37;;;;;;;12.95;6.15;;;23.20;99.90;;;;;;10337597;28;20232;-91
2022/09/14 10:08:46;;;;;;;12.40;6.80;;;22.70;99.90;;;;;;10329229;28;20304;-91
2022/09/14 10:13:49;;;;;;;12.40;6.47;;;22.70;99.90;;;;;;10321383;28;20300;-90
2022/09/14 10:18:52;;;;;;;7.47;2.15;;;23.00;99.90;;;;;;10307447;28;20290;-94
2022/09/14 10:24:15;;;;;;;7.97;2.95;;;22.30;99.90;;;;;;10356268;28;20223;-96
2022/09/14 10:29:36;;;;;;;8.07;3.03;;;21.80;99.90;;;;;;10338824;28;20355;-94
2022/09/14 10:34:39;;;;;;;6.38;2.50;;;22.20;99.90;;;;;;10338998;28;20246;-95
2022/09/14 10:39:59;;;;;;;6.35;2.42;;;21.90;99.90;;;;;;10338490;28;20264;-95
2022/09/14 10:45:59;;;;;;;11.40;3.20;;;21.30;99.90;;;;;;10338656;28;20712;-95
2022/09/14 10:51:28;;;;;;;8.80;2.08;;;21.90;99.90;;;;;;10214836;29;20239;-94
2022/09/14 10:56:58;;;;;;;7.88;2.90;;;21.40;99.90;;;;;;10332817;23;20260;-82
2022/09/14 11:02:32;;;;;;;52.15;8.38;;;21.70;99.90;;;;;;10399218;28;20278;-82
2022/09/14 11:07:57;;;;;;;31.08;5.70;;;21.70;99.90;;;;;;10411235;28;20598;-82
2022/09/14 11:13:20;;;;;;;68.97;6.57;;;21.00;99.90;;;;;;10376412;28;20236;-80
2022/09/14 11:18:25;;;;;;;27.10;5.93;;;21.50;99.90;;;;;;10368306;28;20278;-80
2022/09/14 11:23:55;;;;;;;13.18;3.53;;;22.40;99.90;;;;;;10376817;28;20254;-87
2022/09/14 11:29:10;;;;;;;43.05;8.18;;;22.30;99.90;;;;;;10368614;28;20236;-82
2022/09/14 11:34:21;;;;;;;63.60;9.63;;;22.30;99.90;;;;;;10367017;28;20599;-81
2022/09/14 11:39:37;;;;;;;39.53;8.90;;;23.40;99.90;;;;;;10351338;28;20268;-82
2022/09/14 11:44:43;;;;;;;38.40;7.63;;;24.00;99.90;;;;;;10366238;28;20244;-82
2022/09/14 11:50:05;;;;;;;27.25;6.00;;;24.20;99.90;;;;;;10359177;28;20282;-82
2022/09/14 11:55:14;;;;;;;28.02;8.68;;;23.30;99.90;;;;;;10425421;28;20809;-83
2022/09/14 12:00:22;;;;;;;19.20;5.75;;;23.40;99.90;;;;;;10446677;28;20801;-82
2022/09/14 12:05:30;;;;;;;31.60;6.68;;;23.70;99.90;;;;;;10439200;28;20230;-83
2022/09/14 12:11:03;;;;;;;20.65;5.60;;;23.50;99.90;;;;;;10491454;28;20249;-84
2022/09/14 12:16:07;;;;;;;14.18;3.95;;;23.30;99.90;;;;;;10456042;28;20686;-82
2022/09/14 12:21:24;;;;;;;18.83;5.15;;;22.90;99.90;;;;;;10429175;28;20394;-82
2022/09/14 12:26:30;;;;;;;20.23;5.63;;;23.40;99.90;;;;;;10449701;28;20225;-81
2022/09/14 12:31:53;;;;;;;10.35;3.45;;;23.30;99.90;;;;;;10432147;28;20265;-81
2022/09/14 12:36:59;;;;;;;23.52;7.53;;;22.70;99.90;;;;;;10421568;28;20250;-82
2022/09/14 12:42:26;;;;;;;19.35;4.90;;;23.50;99.90;;;;;;10451502;28;20241;-81
2022/09/14 12:47:37;;;;;;;14.70;5.63;;;23.20;99.90;;;;;;10402452;28;20238;-82
2022/09/14 12:53:06;;;;;;;12.55;6.22;;;23.50;99.90;;;;;;10447074;28;20284;-81
2022/09/14 12:58:21;;;;;;;12.60;5.95;;;23.60;99.90;;;;;;10441914;28;20267;-81
2022/09/14 13:03:42;;;;;;;11.48;5.30;;;23.00;99.90;;;;;;10390902;28;20223;-81
2022/09/14 13:08:55;;;;;;;8.13;3.10;;;23.50;99.90;;;;;;10390490;28;20235;-81
2022/09/14 13:13:59;;;;;;;5.68;2.83;;;23.20;99.90;;;;;;10442022;28;20211;-81
2022/09/14 13:19:04;;;;;;;8.10;3.00;;;22.90;99.90;;;;;;10445738;28;20262;-81
2022/09/14 13:24:33;;;;;;;5.90;1.92;;;22.20;99.90;;;;;;10447308;28;20267;-82
2022/09/14 13:29:37;;;;;;;3.58;1.45;;;22.40;99.90;;;;;;10411228;28;20240;-83
2022/09/14 13:34:39;;;;;;;1.55;0.88;;;21.40;99.90;;;;;;10067778;28;10000621;-83
2022/09/14 13:39:49;;;;;;;5.78;1.45;;;20.90;99.90;;;;;;10092220;28;10000200;-83
2022/09/14 13:44:52;;;;;;;5.40;2.00;;;21.20;99.90;;;;;;10452373;28;20238;-83
2022/09/14 13:49:55;;;;;;;3.60;2.13;;;20.90;99.90;;;;;;10450327;28;20641;-83
2022/09/14 13:55:07;;;;;;;7.20;1.85;;;;;;;;;;10449953;28;20799;-83
2022/09/14 14:00:13;;;;;;;2.67;1.70;;;21.90;99.90;;;;;;10449880;28;20658;-83
2022/09/14 14:05:20;;;;;;;6.55;1.88;;;22.30;99.90;;;;;;10450740;28;20283;-83
2022/09/14 14:10:28;;;;;;;8.13;1.30;;;21.80;99.90;;;;;;10462435;28;20283;-83
2022/09/14 14:15:38;;;;;;;24.00;2.80;;;20.90;99.90;;;;;;10451118;28;20242;-82
2022/09/14 14:20:40;;;;;;;20.60;4.10;;;20.80;99.90;;;;;;10425131;28;20654;-83
2022/09/14 14:25:46;;;;;;;14.07;2.22;;;21.30;99.90;;;;;;10402538;28;20239;-82
2022/09/14 14:30:49;;;;;;;7.32;1.83;;;21.20;99.90;;;;;;10466427;28;20272;-83
2022/09/14 14:35:55;;;;;;;13.60;2.72;;;20.60;99.90;;;;;;10462057;28;20744;-83
2022/09/14 14:40:57;;;;;;;26.23;4.60;;;20.90;99.90;;;;;;10445275;28;20254;-83
2022/09/14 14:46:01;;;;;;;9.93;2.65;;;21.30;99.90;;;;;;10451594;28;20227;-83
2022/09/14 14:51:04;;;;;;;19.02;4.30;;;21.20;99.90;;;;;;10450781;28;20230;-83
2022/09/14 14:56:08;;;;;;;13.23;3.88;;;21.50;99.90;;;;;;10451729;28;20251;-82
2022/09/14 15:01:11;;;;;;;12.93;4.20;;;20.90;99.90;;;;;;10450702;28;20689;-83
2022/09/14 15:06:21;;;;;;;4.97;1.35;;;21.20;99.90;;;;;;10451029;28;20231;-83
2022/09/14 15:11:24;;;;;;;3.30;2.38;;;21.10;99.90;;;;;;10448439;28;20628;-82
2022/09/14 15:16:27;;;;;;;8.52;2.85;;;21.10;99.90;;;;;;10446449;28;20239;-83
2022/09/14 15:21:32;;;;;;;11.23;4.93;;;22.00;99.90;;;;;;10451535;28;20276;-83
2022/09/14 15:26:36;;;;;;;7.30;3.58;;;22.30;99.90;;;;;;10434302;28;20280;-83
2022/09/14 15:31:39;;;;;;;6.20;2.65;;;22.40;99.90;;;;;;10426414;28;20529;-82
2022/09/14 15:36:49;;;;;;;3.95;2.67;;;22.50;99.90;;;;;;10440569;28;20249;-83
2022/09/14 15:41:52;;;;;;;9.82;3.97;;;22.60;99.90;;;;;;10451020;28;20307;-82
2022/09/14 15:46:58;;;;;;;5.97;2.97;;;22.70;99.90;;;;;;10400341;28;20292;-82
2022/09/14 15:52:00;;;;;;;8.48;3.13;;;22.70;99.90;;;;;;10431646;28;20239;-82
2022/09/14 15:57:05;;;;;;;3.67;2.55;;;22.60;99.90;;;;;;10449675;28;20312;-83
2022/09/14 16:02:10;;;;;;;9.30;2.70;;;22.30;99.90;;;;;;10432631;28;20344;-83
2022/09/14 16:07:13;;;;;;;6.15;2.65;;;22.10;99.90;;;;;;10448734;28;20686;-83
2022/09/14 16:12:16;;;;;;;6.30;2.05;;;21.80;99.90;;;;;;10438057;28;20264;-83
2022/09/14 16:17:18;;;;;;;4.93;3.20;;;21.40;99.90;;;;;;10463294;28;20292;-83
2022/09/14 16:22:21;;;;;;;6.18;2.58;;;21.70;99.90;;;;;;10448503;28;20284;-83
2022/09/14 16:27:25;;;;;;;5.13;1.98;;;21.30;99.90;;;;;;10448114;28;20199;-84
2022/09/14 16:32:28;;;;;;;5.28;3.20;;;21.10;99.90;;;;;;10448650;28;20257;-83
2022/09/14 16:37:30;;;;;;;4.15;2.95;;;21.50;99.90;;;;;;10478338;22;20714;-93
2022/09/14 16:42:33;;;;;;;6.60;2.33;;;21.50;99.90;;;;;;10498530;28;20797;-92
2022/09/14 16:47:35;;;;;;;6.20;2.15;;;21.50;99.90;;;;;;10496966;22;20282;-83
2022/09/14 16:52:38;;;;;;;7.47;3.40;;;21.30;99.90;;;;;;10455163;28;20230;-83
2022/09/14 16:57:40;;;;;;;4.85;2.80;;;21.20;99.90;;;;;;10449601;28;20280;-83
2022/09/14 17:02:43;;;;;;;5.22;1.95;;;20.80;99.90;;;;;;10417083;28;20258;-84
2022/09/14 17:07:46;;;;;;;5.97;1.73;;;18.00;99.90;;;;;;10497132;28;20267;-85
2022/09/14 17:12:49;;;;;;;6.47;1.93;;;16.10;99.90;;;;;;10491890;22;20300;-92
2022/09/14 17:17:52;;;;;;;9.60;1.80;;;15.60;99.90;;;;;;10439450;28;20255;-92
2022/09/14 17:22:55;;;;;;;6.20;2.73;;;15.50;99.90;;;;;;10455416;28;20230;-92
2022/09/14 17:27:58;;;;;;;5.03;2.27;;;15.40;99.90;;;;;;10491718;28;20235;-92
2022/09/14 17:33:00;;;;;;;5.80;2.13;;;;;;;;;;10427642;23;20267;-85
2022/09/14 17:38:03;;;;;;;21.60;3.67;;;15.20;99.90;;;;;;10396906;28;20235;-84
2022/09/14 17:43:06;;;;;;;5.93;2.83;;;15.10;99.90;;;;;;10404938;28;20873;-84
2022/09/14 17:48:09;;;;;;;9.80;3.10;;;14.90;99.90;;;;;;10409032;28;20234;-84
2022/09/14 17:53:13;;;;;;;6.67;3.57;;;15.10;99.90;;;;;;10068883;28;9999722;-84
2022/09/14 17:58:16;;;;;;;4.07;3.20;;;16.60;99.90;;;;;;10413939;28;20242;-84
2022/09/14 18:03:21;;;;;;;4.10;3.10;;;19.20;99.90;;;;;;10388747;28;20228;-85
2022/09/14 18:08:24;;;;;;;5.07;3.38;;;20.00;99.90;;;;;;10389617;28;20273;-83
2022/09/14 18:13:27;;;;;;;4.18;3.08;;;20.90;99.90;;;;;;10421707;28;20235;-84
2022/09/14 18:18:30;;;;;;;4.78;3.15;;;21.30;99.90;;;;;;10402852;28;20251;-84
2022/09/14 18:23:33;;;;;;;5.13;3.08;;;21.50;99.90;;;;;;10409750;28;20224;-84
2022/09/14 18:28:36;;;;;;;5.70;2.92;;;21.70;99.90;;;;;;10410812;28;20219;-84
2022/09/14 18:33:39;;;;;;;9.88;4.57;;;21.80;99.90;;;;;;10430951;28;20262;-83
2022/09/14 18:38:42;;;;;;;12.13;3.80;;;21.20;99.90;;;;;;10413115;28;20259;-84
2022/09/14 18:43:48;;;;;;;5.18;3.30;;;20.30;99.90;;;;;;10412905;28;20222;-85
2022/09/14 18:48:53;;;;;;;6.07;3.30;;;19.70;99.90;;;;;;10439644;28;20227;-84
2022/09/14 18:53:57;;;;;;;8.75;3.83;;;19.50;99.90;;;;;;10398398;28;20319;-86
2022/09/14 18:59:02;;;;;;;10.38;4.07;;;19.30;99.90;;;;;;10393226;28;20255;-86
2022/09/14 19:04:07;;;;;;;6.15;3.85;;;19.20;99.90;;;;;;10413380;28;20280;-87
2022/09/14 19:09:10;;;;;;;5.63;3.10;;;19.00;99.90;;;;;;10450073;28;20257;-86
2022/09/14 19:14:14;;;;;;;20.23;3.55;;;18.80;99.90;;;;;;10394843;28;20693;-87
2022/09/14 19:19:17;;;;;;;9.50;3.50;;;18.90;99.90;;;;;;10383103;28;20278;-85
2022/09/14 19:24:19;;;;;;;9.13;5.05;;;18.90;99.90;;;;;;10417398;28;20203;-84
2022/09/14 19:29:23;;;;;;;10.10;4.10;;;18.80;99.90;;;;;;10400899;28;20266;-86
2022/09/14 19:34:27;;;;;;;10.65;4.68;;;18.70;99.90;;;;;;10398799;28;20256;-85
2022/09/14 19:39:29;;;;;;;19.35;5.28;;;18.60;99.90;;;;;;10388937;28;20389;-84
2022/09/14 19:44:32;;;;;;;12.13;5.25;;;18.40;99.90;;;;;;10374810;28;20853;-85
2022/09/14 19:49:35;;;;;;;9.93;5.75;;;18.30;99.90;;;;;;10436850;28;20238;-86
2022/09/14 19:54:37;;;;;;;13.23;5.85;;;18.30;99.90;;;;;;10417875;28;20230;-84
2022/09/14 19:59:39;;;;;;;11.10;6.07;;;18.30;99.90;;;;;;10425577;28;20724;-85
2022/09/14 20:04:42;;;;;;;17.23;7.18;;;18.20;99.90;;;;;;10432383;28;20284;-86
2022/09/14 20:09:44;;;;;;;10.68;5.70;;;18.20;99.90;;;;;;10382555;28;20239;-85
2022/09/14 20:14:47;;;;;;;12.15;5.70;;;18.10;99.90;;;;;;10414932;28;20207;-85
2022/09/14 20:19:49;;;;;;;15.43;6.50;;;18.10;99.90;;;;;;10416466;28;20717;-85
2022/09/14 20:24:52;;;;;;;16.00;6.25;;;18.20;99.90;;;;;;10434159;28;20668;-85
2022/09/14 20:29:54;;;;;;;12.15;5.70;;;18.10;99.90;;;;;;10422767;28;20714;-86
2022/09/14 20:34:57;;;;;;;8.68;6.03;;;18.10;99.90;;;;;;10426106;28;20239;-86
2022/09/14 20:39:59;;;;;;;9.23;5.28;;;18.00;99.90;;;;;;10420570;28;20714;-85
2022/09/14 20:45:02;;;;;;;8.87;5.57;;;18.00;99.90;;;;;;10405238;28;20334;-84
2022/09/14 20:50:05;;;;;;;8.95;5.47;;;17.60;99.90;;;;;;10433073;28;20264;-83
2022/09/14 20:55:08;;;;;;;10.30;5.70;;;17.90;99.90;;;;;;10440213;28;20296;-84
2022/09/14 21:00:11;;;;;;;11.05;5.45;;;17.80;99.90;;;;;;10410462;28;20258;-84
2022/09/14 21:05:14;;;;;;;10.07;6.10;;;17.80;99.90;;;;;;10419931;28;20289;-84
2022/09/14 21:10:17;;;;;;;9.80;6.20;;;17.70;99.90;;;;;;10387121;28;20207;-83
2022/09/14 21:15:20;;;;;;;12.53;6.17;;;17.60;99.90;;;;;;10415968;28;20215;-84
2022/09/14 21:20:22;;;;;;;9.35;5.40;;;17.60;99.90;;;;;;10415906;28;20658;-84
2022/09/14 21:25:24;;;;;;;13.87;6.10;;;17.70;99.90;;;;;;10415437;28;20269;-84
2022/09/14 21:30:27;;;;;;;15.77;5.53;;;17.60;99.90;;;;;;10430281;28;20587;-85
2022/09/14 21:35:30;;;;;;;10.40;6.23;;;17.60;99.90;;;;;;10427437;28;20238;-85
2022/09/14 21:40:38;;;;;;;9.00;5.33;;;17.60;99.90;;;;;;10414937;28;20247;-86
2022/09/14 21:45:44;;;;;;;10.60;5.60;;;16.80;99.90;;;;;;10428220;28;20203;-85
2022/09/14 21:50:46;;;;;;;12.30;5.37;;;17.00;99.90;;;;;;10418287;28;20230;-85
2022/09/14 21:55:49;;;;;;;10.43;5.03;;;17.30;99.90;;;;;;10402810;28;20297;-85
2022/09/14 22:01:00;;;;;;;12.33;5.53;;;17.30;99.90;;;;;;10396564;28;20309;-84
2022/09/14 22:06:06;;;;;;;11.23;5.40;;;17.40;99.90;;;;;;10396900;28;20550;-87
2022/09/14 22:11:11;;;;;;;9.05;5.40;;;17.40;99.90;;;;;;10392679;28;20239;-85
2022/09/14 22:16:15;;;;;;;8.25;4.63;;;17.30;99.90;;;;;;10441319;22;20262;-91
2022/09/14 22:21:18;;;;;;;6.78;4.88;;;17.10;99.90;;;;;;10409251;28;20718;-88
2022/09/14 22:26:22;;;;;;;10.98;4.75;;;17.80;99.90;;;;;;10449190;28;20206;-88
2022/09/14 22:31:26;;;;;;;6.30;4.55;;;18.30;99.90;;;;;;10438401;28;20199;-88
2022/09/14 22:36:29;;;;;;;6.50;4.90;;;18.60;99.90;;;;;;10453688;28;20206;-89
2022/09/14 22:41:32;;;;;;;7.15;4.13;;;18.90;99.90;;;;;;10452710;28;20300;-88
2022/09/14 22:46:35;;;;;;;9.15;5.38;;;19.00;99.90;;;;;;10452862;28;20231;-88
2022/09/14 22:51:37;;;;;;;6.60;4.43;;;19.10;99.90;;;;;;10453319;28;20206;-89
2022/09/14 22:56:40;;;;;;;7.05;4.85;;;19.20;99.90;;;;;;10446604;28;20245;-89
2022/09/14 23:01:42;;;;;;;8.35;4.13;;;19.30;99.90;;;;;;10438108;28;20311;-89
2022/09/14 23:06:46;;;;;;;9.00;5.20;;;19.40;99.90;;;;;;10434638;28;20544;-89
2022/09/14 23:11:49;;;;;;;9.50;3.97;;;19.50;99.90;;;;;;10434804;28;20242;-89
2022/09/14 23:16:51;;;;;;;6.07;4.35;;;19.50;99.90;;;;;;10431765;28;20311;-88
2022/09/14 23:21:54;;;;;;;5.63;3.97;;;19.50;99.90;;;;;;10434152;28;20288;-89
2022/09/14 23:26:56;;;;;;;5.25;3.60;;;19.60;99.90;;;;;;10426330;28;20933;-88
2022/09/14 23:31:59;;;;;;;5.18;4.10;;;19.60;99.90;;;;;;10438580;28;20309;-88
2022/09/14 23:37:01;;;;;;;4.70;3.88;;;19.70;99.90;;;;;;10432725;28;20284;-89
2022/09/14 23:42:04;;;;;;;5.53;4.07;;;19.70;99.90;;;;;;10443388;28;20262;-89
2022/09/14 23:47:07;;;;;;;5.20;4.07;;;19.70;99.90;;;;;;10446330;28;20243;-90
2022/09/14 23:52:09;;;;;;;4.43;3.72;;;19.70;99.90;;;;;;10431006;28;20207;-88
2022/09/14 23:57:12;;;;;;;5.43;4.03;;;19.70;99.90;;;;;;10418468;28;20266;-90
